createdAt,value
2019-03-02T00:00:12.704Z,41.07
2019-03-02T00:02:41.138Z,38.77
2019-03-02T00:05:09.826Z,45.63
2019-03-02T00:07:38.256Z,40.90
2019-03-02T00:10:10.104Z,34.03
2019-03-02T00:12:40.029Z,38.07
2019-03-02T00:15:09.398Z,40.57
2019-03-02T00:17:37.835Z,31.97
2019-03-02T00:20:07.321Z,31.40
2019-03-02T00:22:39.429Z,41.10
2019-03-02T00:25:09.636Z,45.00
2019-03-02T00:27:38.080Z,44.70
2019-03-02T00:30:17.707Z,38.27
2019-03-02T00:32:46.238Z,35.63
2019-03-02T00:35:15.261Z,35.90
2019-03-02T00:37:43.661Z,32.97
2019-03-02T00:40:12.169Z,31.87
2019-03-02T00:42:40.993Z,35.50
2019-03-02T00:45:14.200Z,34.67
2019-03-02T00:47:42.201Z,38.17
2019-03-02T00:50:11.705Z,39.75
2019-03-02T00:52:41.109Z,37.00
2019-03-02T00:55:10.188Z,36.40
2019-03-02T00:57:38.629Z,36.57
2019-03-02T01:00:15.306Z,45.40
2019-03-02T01:02:43.072Z,39.47
2019-03-02T01:05:12.467Z,39.67
2019-03-02T01:07:41.705Z,43.23
2019-03-02T01:10:15.027Z,34.70
2019-03-02T01:12:44.151Z,36.00
2019-03-02T01:15:16.907Z,36.80
2019-03-02T01:17:45.487Z,44.43
2019-03-02T01:20:15.254Z,38.40
2019-03-02T01:22:43.821Z,34.27
2019-03-02T01:25:14.955Z,36.93
2019-03-02T01:27:43.463Z,37.80
2019-03-02T01:30:14.959Z,38.90
2019-03-02T01:32:43.417Z,37.47
2019-03-02T01:35:12.607Z,34.60
2019-03-02T01:37:43.966Z,54.57
2019-03-02T01:40:13.508Z,52.27
2019-03-02T01:42:42.684Z,43.87
2019-03-02T01:45:13.440Z,50.90
2019-03-02T01:47:42.828Z,40.57
2019-03-02T01:50:13.429Z,38.00
2019-03-02T01:52:42.780Z,37.97
2019-03-02T01:55:12.168Z,41.83
2019-03-02T01:57:40.600Z,39.93
2019-03-02T02:00:15.014Z,36.80
2019-03-02T02:02:43.416Z,40.07
2019-03-02T02:05:11.978Z,37.70
2019-03-02T02:07:40.436Z,38.47
2019-03-02T02:10:13.611Z,40.63
2019-03-02T02:12:42.493Z,43.50
2019-03-02T02:15:16.502Z,35.00
2019-03-02T02:17:44.940Z,38.77
2019-03-02T02:20:15.479Z,36.70
2019-03-02T02:22:44.558Z,41.70
2019-03-02T02:25:19.512Z,39.43
2019-03-02T02:27:47.948Z,43.00
2019-03-02T02:30:24.614Z,37.53
2019-03-02T02:32:51.695Z,36.50
2019-03-02T02:35:20.130Z,34.23
2019-03-02T02:37:48.628Z,40.83
2019-03-02T02:40:17.117Z,28.47
2019-03-02T02:42:45.656Z,36.13
2019-03-02T02:45:17.328Z,36.53
2019-03-02T02:47:51.462Z,35.80
2019-03-02T02:50:17.821Z,31.53
2019-03-02T02:52:46.325Z,36.27
2019-03-02T02:55:15.653Z,39.73
2019-03-02T02:57:44.986Z,31.60
2019-03-02T03:00:21.726Z,38.17
2019-03-02T03:02:50.353Z,35.08
2019-03-02T03:05:19.464Z,38.90
2019-03-02T03:07:53.461Z,43.17
2019-03-02T03:10:35.229Z,41.40
2019-03-02T03:13:04.293Z,46.40
2019-03-02T03:15:40.378Z,40.03
2019-03-02T03:18:12.374Z,41.00
2019-03-02T03:20:47.958Z,43.03
2019-03-02T03:23:09.573Z,42.63
2019-03-02T03:25:38.044Z,41.13
2019-03-02T03:28:06.545Z,43.77
2019-03-02T03:30:39.109Z,42.90
2019-03-02T03:33:05.233Z,43.38
2019-03-02T03:35:33.649Z,40.60
2019-03-02T03:38:02.129Z,53.60
2019-03-02T03:40:30.580Z,50.27
2019-03-02T03:43:03.413Z,44.50
2019-03-02T03:45:29.196Z,51.97
2019-03-02T03:47:57.631Z,47.77
2019-03-02T03:50:26.131Z,48.97
2019-03-02T03:52:54.650Z,55.53
2019-03-02T03:55:25.036Z,53.23
2019-03-02T03:57:55.505Z,150.30
2019-03-02T04:00:23.530Z,86.87
2019-03-02T04:02:51.935Z,60.87
2019-03-02T04:05:20.527Z,45.43
2019-03-02T04:07:51.596Z,49.30
2019-03-02T04:10:24.580Z,52.40
2019-03-02T04:12:49.377Z,52.57
2019-03-02T04:15:19.250Z,53.17
2019-03-02T04:17:47.665Z,50.47
2019-03-02T04:20:21.887Z,55.17
2019-03-02T04:22:51.613Z,51.30
2019-03-02T04:25:20.095Z,47.70
2019-03-02T04:27:53.175Z,52.47
2019-03-02T04:30:18.697Z,46.50
2019-03-02T04:32:48.017Z,50.50
2019-03-02T04:35:16.435Z,52.10
2019-03-02T04:37:44.877Z,51.33
2019-03-02T04:40:13.553Z,47.50
2019-03-02T04:42:41.967Z,51.20
2019-03-02T04:45:11.915Z,46.03
2019-03-02T04:47:41.004Z,45.93
2019-03-02T04:50:09.796Z,55.63
2019-03-02T04:52:38.238Z,48.73
2019-03-02T04:55:12.938Z,52.90
2019-03-02T04:57:39.494Z,48.70
2019-03-02T05:00:14.092Z,47.13
2019-03-02T05:02:42.554Z,55.37
2019-03-02T05:05:11.117Z,60.33
2019-03-02T05:07:39.525Z,66.20
2019-03-02T05:10:10.354Z,49.20
2019-03-02T05:12:38.774Z,45.17
2019-03-02T05:15:11.857Z,62.33
2019-03-02T05:17:42.878Z,42.40
2019-03-02T05:20:11.878Z,46.30
2019-03-02T05:22:40.323Z,51.93
2019-03-02T05:25:10.040Z,57.83
2019-03-02T05:27:38.499Z,48.10
2019-03-02T05:30:14.983Z,57.30
2019-03-02T05:32:43.489Z,48.17
2019-03-02T05:35:15.313Z,53.60
2019-03-02T05:37:42.136Z,45.83
2019-03-02T05:40:11.904Z,63.20
2019-03-02T05:42:40.399Z,59.00
2019-03-02T05:45:12.966Z,59.47
2019-03-02T05:47:41.446Z,49.60
2019-03-02T05:50:16.322Z,55.70
2019-03-02T05:52:44.724Z,50.23
2019-03-02T05:55:14.247Z,47.83
2019-03-02T05:57:43.710Z,56.20
2019-03-02T06:00:19.819Z,59.80
2019-03-02T06:02:48.339Z,43.83
2019-03-02T06:05:16.756Z,62.10
2019-03-02T06:07:45.252Z,52.13
2019-03-02T06:10:14.522Z,53.23
2019-03-02T06:12:42.958Z,46.40
2019-03-02T06:15:13.924Z,50.10
2019-03-02T06:17:42.348Z,55.93
2019-03-02T06:20:11.988Z,52.70
2019-03-02T06:22:40.440Z,54.77
2019-03-02T06:25:19.426Z,57.30
2019-03-02T06:27:42.971Z,42.33
2019-03-02T06:30:14.655Z,49.17
2019-03-02T06:32:43.087Z,61.50
2019-03-02T06:35:11.756Z,53.87
2019-03-02T06:37:40.202Z,51.37
2019-03-02T06:40:12.406Z,51.87
2019-03-02T06:42:41.916Z,52.03
2019-03-02T06:45:15.760Z,54.93
2019-03-02T06:47:44.328Z,49.47
2019-03-02T06:50:15.804Z,55.23
2019-03-02T06:52:44.308Z,49.63
2019-03-02T06:55:13.758Z,50.20
2019-03-02T06:57:42.206Z,51.43
2019-03-02T07:00:21.133Z,98.57
2019-03-02T07:02:49.712Z,59.10
2019-03-02T07:05:18.196Z,48.20
2019-03-02T07:07:46.606Z,52.20
2019-03-02T07:10:21.840Z,47.90
2019-03-02T07:12:50.206Z,51.23
2019-03-02T07:15:18.624Z,55.70
2019-03-02T07:18:08.084Z,50.73
2019-03-02T07:20:40.916Z,50.97
2019-03-02T07:23:09.317Z,53.47
2019-03-02T07:25:40.798Z,65.70
2019-03-02T07:28:07.930Z,48.37
2019-03-02T07:30:36.831Z,41.77
2019-03-02T07:33:05.368Z,49.50
2019-03-02T07:35:33.778Z,46.80
2019-03-02T07:38:02.276Z,53.60
2019-03-02T07:40:30.774Z,57.33
2019-03-02T07:42:59.268Z,53.60
2019-03-02T07:45:31.324Z,43.37
2019-03-02T07:48:00.313Z,42.60
2019-03-02T07:50:29.619Z,55.83
2019-03-02T07:52:58.563Z,47.30
2019-03-02T07:55:27.182Z,47.40
2019-03-02T07:57:55.615Z,52.30
2019-03-02T08:00:24.199Z,49.53
2019-03-02T08:02:52.638Z,57.43
2019-03-02T08:05:21.069Z,101.13
2019-03-02T08:07:49.593Z,61.00
2019-03-02T08:10:18.037Z,50.43
2019-03-02T08:12:46.491Z,53.97
2019-03-02T08:15:24.425Z,46.20
2019-03-02T08:17:53.697Z,55.60
2019-03-02T08:20:24.627Z,55.67
2019-03-02T08:22:52.285Z,49.20
2019-03-02T08:25:20.732Z,53.80
2019-03-02T08:27:51.206Z,42.93
2019-03-02T08:30:23.459Z,55.00
2019-03-02T08:32:54.175Z,46.27
2019-03-02T08:35:22.176Z,45.73
2019-03-02T08:37:50.742Z,56.83
2019-03-02T08:40:23.127Z,42.60
2019-03-02T08:42:49.424Z,52.93
2019-03-02T08:45:18.876Z,41.13
2019-03-02T08:47:47.317Z,56.60
2019-03-02T08:50:18.667Z,51.80
2019-03-02T08:52:47.309Z,44.53
2019-03-02T08:55:17.842Z,48.60
2019-03-02T08:57:46.332Z,41.50
2019-03-02T09:00:20.416Z,43.70
2019-03-02T09:02:48.884Z,58.03
2019-03-02T09:05:17.380Z,47.37
2019-03-02T09:07:46.183Z,47.47
2019-03-02T09:10:18.138Z,45.03
2019-03-02T09:12:49.591Z,44.23
2019-03-02T09:15:30.257Z,44.83
2019-03-02T09:17:59.866Z,46.88
2019-03-02T09:20:32.302Z,46.43
2019-03-02T09:23:05.225Z,40.60
2019-03-02T09:25:35.210Z,48.20
2019-03-02T09:28:03.888Z,43.97
2019-03-02T09:30:32.369Z,42.63
2019-03-02T09:33:00.882Z,47.00
2019-03-02T09:35:30.275Z,39.73
2019-03-02T09:37:58.746Z,41.87
2019-03-02T09:40:27.340Z,42.13
2019-03-02T09:42:55.735Z,45.00
2019-03-02T09:45:24.180Z,43.97
2019-03-02T09:47:52.689Z,46.67
2019-03-02T09:50:23.210Z,83.10
2019-03-02T09:52:51.776Z,46.90
2019-03-02T09:55:20.838Z,54.93
2019-03-02T09:57:49.672Z,41.23
2019-03-02T10:00:25.859Z,39.80
2019-03-02T10:02:54.593Z,43.80
2019-03-02T10:05:23.045Z,46.50
2019-03-02T10:07:51.512Z,43.30
2019-03-02T10:10:20.191Z,46.90
2019-03-02T10:12:51.746Z,40.30
2019-03-02T10:15:26.565Z,38.63
2019-03-02T10:17:55.100Z,38.60
2019-03-02T10:20:23.546Z,40.60
2019-03-02T10:22:51.974Z,52.10
2019-03-02T10:25:20.441Z,44.23
2019-03-02T10:27:48.851Z,37.37
2019-03-02T10:30:21.997Z,41.47
2019-03-02T10:32:51.895Z,45.50
2019-03-02T10:35:20.991Z,48.83
2019-03-02T10:37:49.565Z,42.77
2019-03-02T10:40:19.361Z,43.13
2019-03-02T10:42:47.880Z,42.40
2019-03-02T10:45:18.503Z,43.47
2019-03-02T10:47:46.990Z,38.07
2019-03-02T10:50:19.649Z,37.45
2019-03-02T10:52:48.877Z,49.00
2019-03-02T10:55:20.799Z,42.17
2019-03-02T10:57:49.800Z,38.90
2019-03-02T11:00:25.642Z,45.73
2019-03-02T11:02:56.054Z,37.83
2019-03-02T11:05:24.421Z,37.50
2019-03-02T11:08:09.413Z,38.17
2019-03-02T11:10:48.648Z,34.30
2019-03-02T11:13:32.613Z,35.30
2019-03-02T11:16:14.517Z,30.00
2019-03-02T11:18:47.727Z,36.90
2019-03-02T11:21:17.893Z,36.90
2019-03-02T11:23:48.028Z,38.73
2019-03-02T11:26:24.261Z,38.30
2019-03-02T11:28:54.343Z,32.77
2019-03-02T11:31:24.434Z,32.95
2019-03-02T11:34:03.309Z,31.73
2019-03-02T11:36:33.392Z,35.50
2019-03-02T11:39:08.602Z,37.57
2019-03-02T11:41:38.725Z,35.70
2019-03-02T11:44:11.540Z,40.73
2019-03-02T11:46:41.626Z,35.97
2019-03-02T11:49:17.480Z,38.57
2019-03-02T11:51:47.568Z,41.80
2019-03-02T11:54:17.708Z,35.20
2019-03-02T11:56:47.972Z,43.27
2019-03-02T11:59:18.189Z,34.40
2019-03-02T12:01:51.223Z,42.30
2019-03-02T12:04:24.251Z,35.93
2019-03-02T12:06:57.577Z,26.50
2019-03-02T12:09:36.792Z,23.20
2019-03-02T12:12:22.956Z,28.80
2019-03-02T12:14:53.039Z,30.23
2019-03-02T12:17:28.827Z,22.00
2019-03-02T12:20:02.528Z,20.67
2019-03-02T12:22:42.952Z,24.23
2019-03-02T12:25:25.434Z,27.50
2019-03-02T12:28:07.114Z,25.93
2019-03-02T12:30:40.224Z,28.17
2019-03-02T12:33:16.979Z,29.47
2019-03-02T12:35:51.453Z,25.10
2019-03-02T12:38:30.378Z,29.57
2019-03-02T12:41:06.295Z,28.80
2019-03-02T12:43:51.284Z,24.80
2019-03-02T12:46:38.977Z,37.70
2019-03-02T12:49:15.029Z,33.97
2019-03-02T12:51:56.831Z,24.87
2019-03-02T12:54:32.395Z,25.43
2019-03-02T12:57:08.652Z,33.20
2019-03-02T12:59:56.557Z,34.43
2019-03-02T13:02:35.607Z,31.80
2019-03-02T13:05:13.776Z,22.60
2019-03-02T13:07:50.918Z,21.50
2019-03-02T13:10:33.549Z,32.23
2019-03-02T13:13:20.703Z,26.37
2019-03-02T13:15:54.607Z,24.80
2019-03-02T13:18:42.857Z,24.50
2019-03-02T13:21:21.937Z,23.77
2019-03-02T13:23:51.993Z,26.50
2019-03-02T13:26:24.817Z,26.73
2019-03-02T13:28:54.899Z,30.80
2019-03-02T13:31:30.652Z,20.77
2019-03-02T13:34:16.717Z,22.93
2019-03-02T13:37:02.021Z,29.07
2019-03-02T13:39:34.913Z,27.13
2019-03-02T13:42:23.303Z,23.43
2019-03-02T13:45:05.476Z,21.80
2019-03-02T13:47:45.015Z,28.80
2019-03-02T13:50:31.721Z,18.70
2019-03-02T13:53:21.085Z,31.43
2019-03-02T13:55:51.260Z,36.03
2019-03-02T13:58:21.307Z,21.13
2019-03-02T14:01:07.639Z,25.77
2019-03-02T14:03:40.817Z,27.30
2019-03-02T14:06:19.606Z,21.40
2019-03-02T14:09:06.595Z,22.93
2019-03-02T14:11:44.890Z,15.23
2019-03-02T14:14:21.991Z,15.33
2019-03-02T14:17:01.674Z,15.33
2019-03-02T14:19:48.518Z,15.87
2019-03-02T14:22:31.124Z,19.07
2019-03-02T14:25:22.757Z,16.57
2019-03-02T14:28:11.446Z,16.30
2019-03-02T14:30:44.228Z,15.73
2019-03-02T14:33:30.919Z,21.33
2019-03-02T14:36:01.007Z,13.67
2019-03-02T14:38:42.796Z,24.03
2019-03-02T14:41:18.636Z,21.70
2019-03-02T14:43:48.694Z,20.87
2019-03-02T14:46:36.983Z,14.50
2019-03-02T14:49:28.098Z,11.17
2019-03-02T14:51:59.748Z,14.37
2019-03-02T14:54:29.810Z,13.33
2019-03-02T14:57:14.908Z,11.00
2019-03-02T15:00:00.003Z,11.90
2019-03-02T15:02:32.747Z,12.33
2019-03-02T15:05:16.086Z,15.10
2019-03-02T15:07:49.048Z,12.63
2019-03-02T15:10:31.236Z,16.00
2019-03-02T15:13:09.836Z,16.20
2019-03-02T15:15:42.677Z,16.83
2019-03-02T15:18:24.003Z,9.53
2019-03-02T15:20:52.618Z,10.53
2019-03-02T15:23:35.200Z,15.70
2019-03-02T15:26:10.246Z,12.27
2019-03-02T15:28:41.491Z,13.97
2019-03-02T15:31:21.236Z,5.93
2019-03-02T15:34:10.284Z,13.33
2019-03-02T15:36:44.038Z,9.17
2019-03-02T15:39:17.588Z,11.43
2019-03-02T15:41:50.438Z,7.20
2019-03-02T15:44:20.488Z,12.60
2019-03-02T15:46:59.635Z,6.33
2019-03-02T15:49:29.753Z,7.33
2019-03-02T15:52:00.074Z,4.97
2019-03-02T15:54:44.981Z,10.13
2019-03-02T15:57:39.480Z,6.30
2019-03-02T16:00:02.989Z,12.83
2019-03-02T16:02:42.052Z,12.33
2019-03-02T16:05:26.805Z,6.67
2019-03-02T16:07:59.567Z,4.20
2019-03-02T16:10:35.793Z,11.20
2019-03-02T16:13:21.098Z,10.57
2019-03-02T16:15:49.938Z,10.13
2019-03-02T16:18:23.863Z,4.57
2019-03-02T16:21:10.559Z,7.57
2019-03-02T16:23:58.609Z,5.60
2019-03-02T16:26:28.677Z,2.93
2019-03-02T16:28:58.761Z,7.77
2019-03-02T16:31:28.809Z,5.57
2019-03-02T16:33:58.892Z,8.63
2019-03-02T16:36:40.157Z,6.37
2019-03-02T16:39:15.773Z,9.13
2019-03-02T16:41:48.801Z,5.30
2019-03-02T16:44:18.980Z,3.30
2019-03-02T16:46:51.614Z,6.37
2019-03-02T16:49:27.672Z,4.13
2019-03-02T16:52:13.904Z,4.60
2019-03-02T16:54:49.400Z,2.60
2019-03-02T16:57:34.623Z,3.37
2019-03-02T17:00:19.957Z,4.45
2019-03-02T17:03:06.846Z,5.27
2019-03-02T17:05:45.728Z,6.27
2019-03-02T17:08:31.284Z,4.77
2019-03-02T17:11:02.536Z,3.50
2019-03-02T17:13:38.392Z,4.37
2019-03-02T17:16:08.581Z,5.83
2019-03-02T17:18:41.396Z,4.67
2019-03-02T17:21:11.732Z,3.83
2019-03-02T17:23:47.290Z,3.37
2019-03-02T17:26:17.408Z,4.43
2019-03-02T17:28:59.582Z,5.20
2019-03-02T17:31:39.729Z,3.40
2019-03-02T17:34:19.706Z,4.20
2019-03-02T17:36:52.553Z,4.97
2019-03-02T17:39:40.829Z,5.00
2019-03-02T17:42:16.640Z,3.50
2019-03-02T17:45:02.969Z,3.60
2019-03-02T17:47:36.936Z,4.63
2019-03-02T17:50:12.544Z,3.53
2019-03-02T17:52:43.235Z,13.43
2019-03-02T17:55:13.337Z,4.40
2019-03-02T17:57:50.267Z,4.30
2019-03-02T18:00:19.786Z,3.17
2019-03-02T18:02:50.067Z,2.93
2019-03-02T18:05:20.122Z,2.97
2019-03-02T18:07:52.857Z,4.60
2019-03-02T18:10:22.996Z,2.57
2019-03-02T18:12:53.160Z,2.53
2019-03-02T18:15:29.146Z,3.20
2019-03-02T18:18:03.652Z,3.40
2019-03-02T18:20:32.136Z,3.57
2019-03-02T18:23:00.586Z,8.43
2019-03-02T18:25:29.087Z,6.70
2019-03-02T18:27:59.306Z,2.63
2019-03-02T18:30:27.930Z,3.10
2019-03-02T18:32:58.547Z,2.40
2019-03-02T18:35:26.978Z,2.40
2019-03-02T18:37:55.444Z,3.87
2019-03-02T18:40:23.924Z,2.90
2019-03-02T18:42:52.550Z,2.20
2019-03-02T18:45:21.106Z,3.77
2019-03-02T18:47:49.567Z,3.00
2019-03-02T18:50:34.660Z,3.10
2019-03-02T18:53:02.420Z,3.23
2019-03-02T18:55:31.072Z,4.60
2019-03-02T18:57:59.748Z,3.70
2019-03-02T19:00:30.054Z,4.07
2019-03-02T19:02:58.478Z,3.80
2019-03-02T19:05:31.988Z,14.90
2019-03-02T19:08:01.344Z,14.17
2019-03-02T19:10:30.051Z,4.40
2019-03-02T19:12:59.329Z,2.93
2019-03-02T19:15:28.911Z,3.20
2019-03-02T19:17:58.283Z,3.20
2019-03-02T19:20:26.712Z,3.93
2019-03-02T19:22:55.148Z,4.40
2019-03-02T19:25:23.712Z,15.50
2019-03-02T19:27:52.144Z,7.57
2019-03-02T19:30:21.419Z,5.47
2019-03-02T19:32:49.998Z,8.23
2019-03-02T19:35:18.508Z,4.83
2019-03-02T19:37:46.933Z,5.50
2019-03-02T19:40:18.447Z,5.13
2019-03-02T19:42:46.886Z,4.20
2019-03-02T19:45:15.384Z,16.77
2019-03-02T19:47:43.820Z,20.90
2019-03-02T19:50:18.052Z,8.97
2019-03-02T19:52:46.468Z,5.70
2019-03-02T19:55:16.246Z,4.60
2019-03-02T19:57:45.432Z,5.63
2019-03-02T20:00:22.355Z,6.03
2019-03-02T20:02:50.949Z,6.93
2019-03-02T20:05:19.476Z,5.53
2019-03-02T20:07:47.907Z,4.07
2019-03-02T20:10:17.838Z,5.30
2019-03-02T20:12:46.495Z,6.40
2019-03-02T20:15:17.289Z,8.40
2019-03-02T20:17:46.086Z,6.57
2019-03-02T20:20:16.454Z,13.67
2019-03-02T20:22:45.548Z,5.07
2019-03-02T20:25:15.287Z,5.00
2019-03-02T20:27:44.265Z,8.63
2019-03-02T20:30:19.578Z,7.00
2019-03-02T20:32:48.261Z,9.70
2019-03-02T20:35:25.311Z,10.43
2019-03-02T20:37:53.742Z,8.17
2019-03-02T20:40:27.265Z,5.97
2019-03-02T20:42:56.157Z,18.40
2019-03-02T20:45:26.210Z,11.13
2019-03-02T20:47:54.653Z,7.93
2019-03-02T20:50:23.732Z,16.10
2019-03-02T20:52:52.167Z,13.37
2019-03-02T20:55:20.669Z,8.10
2019-03-02T20:57:50.281Z,11.63
2019-03-02T21:00:35.911Z,20.13
2019-03-02T21:03:04.606Z,13.97
2019-03-02T21:05:33.717Z,14.10
2019-03-02T21:08:02.216Z,9.80
2019-03-02T21:10:33.126Z,13.10
2019-03-02T21:13:01.728Z,10.27
2019-03-02T21:15:44.031Z,8.40
2019-03-02T21:18:12.476Z,11.63
2019-03-02T21:20:40.924Z,7.60
2019-03-02T21:23:09.360Z,14.23
2019-03-02T21:25:37.808Z,15.47
2019-03-02T21:28:06.227Z,9.57
2019-03-02T21:30:34.667Z,12.40
2019-03-02T21:33:03.128Z,28.90
2019-03-02T21:35:32.282Z,24.20
2019-03-02T21:38:00.710Z,19.90
2019-03-02T21:40:31.696Z,15.73
2019-03-02T21:43:00.257Z,11.30
2019-03-02T21:45:29.688Z,13.67
2019-03-02T21:47:58.211Z,12.80
2019-03-02T21:50:44.878Z,11.20
2019-03-02T21:53:13.363Z,10.50
2019-03-02T21:55:41.888Z,13.43
2019-03-02T21:58:10.442Z,14.13
2019-03-02T22:00:39.139Z,17.03
2019-03-02T22:03:07.572Z,13.57
2019-03-02T22:05:36.003Z,17.67
2019-03-02T22:08:04.544Z,23.00
2019-03-02T22:10:52.777Z,15.60
2019-03-02T22:13:21.206Z,14.83
2019-03-02T22:15:49.631Z,15.67
2019-03-02T22:18:18.090Z,17.83
2019-03-02T22:20:46.516Z,12.60
2019-03-02T22:23:16.033Z,9.13
2019-03-02T22:25:44.477Z,14.90
2019-03-02T22:28:12.932Z,12.50
2019-03-02T22:30:41.354Z,19.00
2019-03-02T22:33:09.765Z,7.53
2019-03-02T22:35:38.235Z,10.93
2019-03-02T22:38:06.688Z,12.77
2019-03-02T22:40:35.122Z,13.93
2019-03-02T22:43:04.486Z,13.33
2019-03-02T22:45:32.944Z,16.70
2019-03-02T22:48:01.396Z,16.80
2019-03-02T22:50:33.655Z,11.70
2019-03-02T22:53:02.089Z,8.97
2019-03-02T22:55:30.516Z,9.73
2019-03-02T22:57:59.607Z,11.00
2019-03-02T23:00:45.806Z,16.43
2019-03-02T23:03:13.341Z,13.00
2019-03-02T23:05:42.185Z,12.17
2019-03-02T23:08:10.636Z,12.17
2019-03-02T23:10:39.089Z,25.03
2019-03-02T23:13:07.533Z,14.27
2019-03-02T23:15:35.961Z,10.37
2019-03-02T23:18:05.365Z,19.53
2019-03-02T23:20:33.798Z,20.60
2019-03-02T23:23:02.267Z,9.17
2019-03-02T23:25:30.719Z,12.87
2019-03-02T23:27:59.195Z,10.10
2019-03-02T23:30:27.698Z,13.93
2019-03-02T23:32:56.103Z,9.93
2019-03-02T23:35:24.546Z,8.83
2019-03-02T23:37:52.964Z,10.10
2019-03-02T23:40:23.193Z,12.13
2019-03-02T23:42:51.701Z,16.93
2019-03-02T23:45:20.290Z,16.23
2019-03-02T23:47:48.835Z,16.83
2019-03-02T23:50:17.240Z,12.30
2019-03-02T23:52:45.811Z,14.33
2019-03-02T23:55:14.979Z,18.53
2019-03-02T23:57:43.459Z,17.73
